createdAt,value
2018-07-03T00:00:52.956Z,101090.83
2018-07-03T00:05:47.480Z,101089.69
2018-07-03T00:10:42.230Z,101090.48
2018-07-03T00:15:37.003Z,101093.44
2018-07-03T00:20:31.585Z,101091.31
2018-07-03T00:25:26.197Z,101083.42
2018-07-03T00:30:20.727Z,101082.81
2018-07-03T00:35:15.318Z,101074.55
2018-07-03T00:40:09.586Z,101079.92
2018-07-03T00:45:04.514Z,101083.85
2018-07-03T00:50:00.108Z,101074.73
2018-07-03T00:54:55.067Z,101070.49
2018-07-03T01:00:06.443Z,101068.77
2018-07-03T01:05:01.729Z,101066.34
2018-07-03T01:09:56.308Z,101068.25
2018-07-03T01:14:51.174Z,101059.09
2018-07-03T01:19:45.790Z,101060.42
2018-07-03T01:24:40.322Z,101055.62
2018-07-03T01:29:34.989Z,101055.14
2018-07-03T01:34:29.962Z,101056.36
2018-07-03T01:39:24.842Z,101060.64
2018-07-03T01:44:19.390Z,101060.90
2018-07-03T01:49:13.968Z,101060.55
2018-07-03T01:54:08.825Z,101058.83
2018-07-03T01:59:03.472Z,101061.77
2018-07-03T02:03:57.974Z,101059.73
2018-07-03T02:08:52.456Z,101062.07
2018-07-03T02:13:47.112Z,101053.44
2018-07-03T02:18:41.419Z,101056.76
2018-07-03T02:23:36.505Z,101054.97
2018-07-03T02:28:30.950Z,101054.27
2018-07-03T02:33:25.758Z,101050.87
2018-07-03T02:38:20.441Z,101059.05
2018-07-03T02:43:15.090Z,101057.63
2018-07-03T02:48:09.850Z,101061.51
2018-07-03T02:53:04.325Z,101058.12
2018-07-03T02:57:58.823Z,101056.52
2018-07-03T03:02:53.494Z,101063.67
2018-07-03T03:07:48.084Z,101062.92
2018-07-03T03:12:42.556Z,101062.55
2018-07-03T03:17:37.118Z,101063.50
2018-07-03T03:22:31.805Z,101059.47
2018-07-03T03:27:26.728Z,101057.47
2018-07-03T03:32:21.223Z,101059.67
2018-07-03T03:37:15.670Z,101057.55
2018-07-03T03:42:10.276Z,101060.97
2018-07-03T03:47:04.822Z,101061.52
2018-07-03T03:51:59.631Z,101071.73
2018-07-03T03:56:54.692Z,101079.23
2018-07-03T04:01:49.203Z,101079.23
2018-07-03T04:06:43.714Z,101087.17
2018-07-03T04:11:38.386Z,101085.72
2018-07-03T04:16:32.840Z,101098.13
2018-07-03T04:21:27.530Z,101099.59
2018-07-03T04:26:22.184Z,101093.18
2018-07-03T04:31:16.710Z,101099.98
2018-07-03T04:36:10.946Z,101101.09
2018-07-03T04:41:05.634Z,101101.87
2018-07-03T04:46:00.262Z,101110.66
2018-07-03T04:50:54.803Z,101112.77
2018-07-03T04:55:49.682Z,101120.74
2018-07-03T05:00:44.120Z,101119.06
2018-07-03T05:05:38.592Z,101117.23
2018-07-03T05:10:33.204Z,101118.00
2018-07-03T05:15:27.682Z,101115.83
2018-07-03T05:20:22.170Z,101106.34
2018-07-03T05:25:16.448Z,101110.16
2018-07-03T05:30:10.930Z,101120.62
2018-07-03T05:35:06.251Z,101129.34
2018-07-03T05:40:01.312Z,101140.34
2018-07-03T05:44:56.274Z,101141.24
2018-07-03T05:49:51.233Z,101154.47
2018-07-03T05:54:46.106Z,101151.81
2018-07-03T05:59:40.822Z,101154.66
2018-07-03T06:04:35.370Z,101150.98
2018-07-03T06:09:30.297Z,101155.62
2018-07-03T06:14:24.961Z,101154.09
2018-07-03T06:19:19.587Z,101149.38
2018-07-03T06:24:14.413Z,101155.97
2018-07-03T06:29:09.181Z,101167.80
2018-07-03T06:34:04.202Z,101165.59
2018-07-03T06:38:58.929Z,101161.02
2018-07-03T06:43:53.997Z,101164.06
2018-07-03T06:48:48.904Z,101168.77
2018-07-03T06:53:43.964Z,101156.30
2018-07-03T06:58:38.467Z,101159.64
2018-07-03T07:03:33.317Z,101155.52
2018-07-03T07:08:28.077Z,101141.99
2018-07-03T07:13:22.924Z,101142.70
2018-07-03T07:18:17.688Z,101147.46
2018-07-03T07:23:12.580Z,101148.08
2018-07-03T07:28:07.480Z,101142.81
2018-07-03T07:33:03.165Z,101148.81
2018-07-03T07:37:57.871Z,101131.19
2018-07-03T07:42:53.047Z,101132.21
2018-07-03T07:47:47.829Z,101126.77
2018-07-03T07:52:42.724Z,101125.48
2018-07-03T07:57:37.440Z,101123.05
2018-07-03T08:02:32.337Z,101125.67
2018-07-03T08:07:27.148Z,101125.09
2018-07-03T08:12:22.093Z,101130.02
2018-07-03T08:17:21.132Z,101126.88
2018-07-03T08:22:15.882Z,101127.75
2018-07-03T08:27:10.632Z,101130.25
2018-07-03T08:32:05.215Z,101132.88
2018-07-03T08:36:59.918Z,101131.14
2018-07-03T08:41:54.811Z,101123.27
2018-07-03T08:46:49.622Z,101121.27
2018-07-03T08:51:44.396Z,101123.20
2018-07-03T08:56:39.135Z,101117.20
2018-07-03T09:01:34.146Z,101122.16
2018-07-03T09:06:28.902Z,101129.44
2018-07-03T09:11:23.813Z,101128.13
2018-07-03T09:16:18.696Z,101127.23
2018-07-03T09:21:13.610Z,101124.91
2018-07-03T09:26:08.332Z,101119.62
2018-07-03T09:31:03.407Z,101113.80
2018-07-03T09:35:58.146Z,101110.02
2018-07-03T09:40:52.875Z,101111.44
2018-07-03T09:45:47.876Z,101094.64
2018-07-03T09:50:42.632Z,101100.13
2018-07-03T09:55:37.393Z,101086.58
2018-07-03T10:00:37.397Z,101076.69
2018-07-03T10:05:31.873Z,101077.88
2018-07-03T10:10:26.830Z,101079.06
2018-07-03T10:15:21.293Z,101074.86
2018-07-03T10:20:16.056Z,101076.77
2018-07-03T10:25:10.804Z,101066.89
2018-07-03T10:30:06.776Z,101072.80
2018-07-03T10:35:01.722Z,101070.11
2018-07-03T10:39:56.638Z,101072.78
2018-07-03T10:44:51.372Z,101067.53
2018-07-03T10:49:46.122Z,101064.54
2018-07-03T10:54:40.934Z,101061.05
2018-07-03T10:59:35.736Z,101058.95
2018-07-03T11:04:31.005Z,101057.16
2018-07-03T11:09:25.785Z,101052.81
2018-07-03T11:14:20.597Z,101053.98
2018-07-03T11:19:15.724Z,101041.83
2018-07-03T11:24:10.701Z,101036.84
2018-07-03T11:29:05.680Z,101039.82
2018-07-03T11:34:00.142Z,101028.92
2018-07-03T11:38:54.846Z,101028.78
2018-07-03T11:43:51.003Z,101029.49
2018-07-03T11:48:46.183Z,101021.62
2018-07-03T11:53:42.180Z,101017.94
2018-07-03T11:58:37.672Z,101017.13
2018-07-03T12:03:33.058Z,101009.62
2018-07-03T12:08:27.844Z,101007.00
2018-07-03T12:13:22.560Z,101007.41
2018-07-03T12:18:23.623Z,101003.94
2018-07-03T12:23:18.762Z,101005.25
2018-07-03T12:28:13.709Z,100989.79
2018-07-03T12:33:08.622Z,100994.27
2018-07-03T12:38:03.501Z,100984.12
2018-07-03T12:42:59.737Z,100983.13
2018-07-03T12:47:54.898Z,100985.58
2018-07-03T12:52:49.960Z,100984.96
2018-07-03T12:57:46.144Z,100975.63
2018-07-03T13:02:40.861Z,100974.61
2018-07-03T13:07:36.722Z,100973.09
2018-07-03T13:12:31.805Z,100971.11
2018-07-03T13:17:27.320Z,100971.20
2018-07-03T13:22:22.043Z,100963.14
2018-07-03T13:27:17.384Z,100957.55
2018-07-03T13:32:12.209Z,100963.86
2018-07-03T13:37:07.446Z,100955.46
2018-07-03T13:42:03.059Z,100950.09
2018-07-03T13:46:58.576Z,100951.76
2018-07-03T13:51:53.377Z,100948.84
2018-07-03T13:56:48.750Z,100941.96
2018-07-03T14:01:44.083Z,100936.19
2018-07-03T14:06:38.802Z,100924.23
2018-07-03T14:11:33.618Z,100920.42
2018-07-03T14:16:28.365Z,100913.19
2018-07-03T14:21:22.820Z,100918.00
2018-07-03T14:26:17.754Z,100916.91
2018-07-03T14:31:12.517Z,100920.42
2018-07-03T14:36:07.820Z,100910.31
2018-07-03T14:41:02.322Z,100913.12
2018-07-03T14:45:56.867Z,100909.77
2018-07-03T14:50:51.645Z,100908.16
2018-07-03T14:55:46.184Z,100910.23
2018-07-03T15:00:40.965Z,100901.70
2018-07-03T15:05:35.913Z,100897.81
2018-07-03T15:10:31.310Z,100894.31
2018-07-03T15:15:26.216Z,100894.31
2018-07-03T15:20:20.859Z,100897.59
2018-07-03T15:25:15.553Z,100883.36
2018-07-03T15:30:10.320Z,100888.31
2018-07-03T15:35:05.130Z,100884.95
2018-07-03T15:40:00.054Z,100886.02
2018-07-03T15:45:10.153Z,100878.55
2018-07-03T15:50:05.435Z,100876.70
2018-07-03T15:55:00.388Z,100865.97
2018-07-03T15:59:54.859Z,100872.92
2018-07-03T16:05:16.782Z,100868.52
2018-07-03T16:10:11.482Z,100857.52
2018-07-03T16:15:07.104Z,100852.62
2018-07-03T16:20:07.160Z,100851.89
2018-07-03T16:25:02.564Z,100861.35
2018-07-03T16:29:57.735Z,100853.06
2018-07-03T16:34:52.472Z,100855.41
2018-07-03T16:39:47.226Z,100847.86
2018-07-03T16:44:42.128Z,100839.16
2018-07-03T16:49:36.984Z,100845.06
2018-07-03T16:54:32.126Z,100840.13
2018-07-03T16:59:27.093Z,100840.45
2018-07-03T17:04:21.948Z,100838.67
2018-07-03T17:09:17.003Z,100845.44
2018-07-03T17:14:12.298Z,100839.81
2018-07-03T17:19:12.360Z,100834.53
2018-07-03T17:24:08.020Z,100835.30
2018-07-03T17:29:03.204Z,100823.86
2018-07-03T17:33:57.782Z,100828.27
2018-07-03T17:38:52.543Z,100817.44
2018-07-03T17:44:16.966Z,100814.89
2018-07-03T17:49:11.935Z,100816.66
2018-07-03T17:54:07.453Z,100812.86
2018-07-03T17:59:02.335Z,100816.29
2018-07-03T18:03:57.574Z,100817.53
2018-07-03T18:08:53.127Z,100819.35
2018-07-03T18:13:47.918Z,100816.59
2018-07-03T18:18:42.696Z,100814.89
2018-07-03T18:23:37.252Z,100817.14
2018-07-03T18:28:32.402Z,100823.47
2018-07-03T18:33:26.961Z,100825.97
2018-07-03T18:38:21.758Z,100840.03
2018-07-03T18:43:16.273Z,100842.29
2018-07-03T18:48:10.555Z,100833.93
2018-07-03T18:53:05.382Z,100840.26
2018-07-03T18:58:00.009Z,100844.17
2018-07-03T19:02:55.084Z,100841.49
2018-07-03T19:07:49.582Z,100845.83
2018-07-03T19:12:44.639Z,100847.13
2018-07-03T19:17:38.953Z,100839.91
2018-07-03T19:22:34.056Z,100840.53
2018-07-03T19:27:28.813Z,100840.94
2018-07-03T19:32:23.288Z,100839.30
2018-07-03T19:37:18.533Z,100844.33
2018-07-03T19:42:13.432Z,100843.87
2018-07-03T19:47:08.823Z,100847.43
2018-07-03T19:52:03.336Z,100853.69
2018-07-03T19:56:59.698Z,100858.62
2018-07-03T20:01:54.726Z,100864.58
2018-07-03T20:06:49.380Z,100859.09
2018-07-03T20:11:44.276Z,100863.98
2018-07-03T20:16:39.068Z,100863.03
2018-07-03T20:21:33.668Z,100866.00
2018-07-03T20:26:28.454Z,100869.45
2018-07-03T20:31:23.221Z,100867.28
2018-07-03T20:36:18.470Z,100870.34
2018-07-03T20:41:13.348Z,100874.39
2018-07-03T20:46:09.040Z,100874.91
2018-07-03T20:51:03.991Z,100884.37
2018-07-03T20:55:58.542Z,100880.97
2018-07-03T21:00:53.246Z,100885.22
2018-07-03T21:05:48.615Z,100881.98
2018-07-03T21:10:43.401Z,100886.16
2018-07-03T21:15:38.324Z,100885.15
2018-07-03T21:20:33.355Z,100882.92
2018-07-03T21:25:28.051Z,100883.09
2018-07-03T21:30:22.717Z,100882.88
2018-07-03T21:35:19.882Z,100886.56
2018-07-03T21:40:14.536Z,100875.41
2018-07-03T21:45:09.220Z,100886.69
2018-07-03T21:50:04.087Z,100877.05
2018-07-03T21:54:59.288Z,100869.61
2018-07-03T21:59:54.071Z,100869.41
2018-07-03T22:04:48.698Z,100868.02
2018-07-03T22:09:43.302Z,100867.48
2018-07-03T22:14:40.413Z,100872.02
2018-07-03T22:19:34.596Z,100868.09
2018-07-03T22:24:28.985Z,100867.77
2018-07-03T22:29:24.690Z,100874.99
2018-07-03T22:34:19.233Z,100884.10
2018-07-03T22:39:14.546Z,100884.97
2018-07-03T22:44:09.782Z,100887.19
2018-07-03T22:49:05.335Z,100887.06
2018-07-03T22:53:59.983Z,100881.84
2018-07-03T22:58:54.794Z,100892.14
2018-07-03T23:03:49.474Z,100883.67
2018-07-03T23:08:44.232Z,100895.13
2018-07-03T23:13:39.066Z,100886.20
2018-07-03T23:18:33.558Z,100881.30
2018-07-03T23:23:28.182Z,100891.48
2018-07-03T23:28:22.660Z,100886.58
2018-07-03T23:33:17.378Z,100890.83
2018-07-03T23:38:12.234Z,100895.38
2018-07-03T23:43:06.876Z,100902.28
2018-07-03T23:48:18.219Z,100897.73
2018-07-03T23:53:29.748Z,100898.06
2018-07-03T23:58:41.223Z,100899.05
